Time;durP1;ratioP1;P1;durP2;ratioP2;P2;SDS_P1;SDS_P2;PMS_P1;PMS_P2;Temp;Humidity;BMP_temperature;BMP_pressure;BME280_temperature;BME280_humidity;BME280_pressure;Samples;Min_cycle;Max_cycle;Signal;HPM_P1;HPM_P2
2023/12/18 00:01:37;;;;;;;0.20;0.20;;;0.10;99.90;;;;;;5029905;28;20475;-81
2023/12/18 00:04:03;;;;;;;18.23;16.17;;;0.20;99.90;;;;;;5031556;28;20021;-75
2023/12/18 00:06:32;;;;;;;0.50;0.50;;;0.30;99.90;;;;;;5030814;28;20026;-75
2023/12/18 00:08:57;;;;;;;2.75;2.67;;;0.30;99.90;;;;;;5027285;28;20140;-78
2023/12/18 00:11:23;;;;;;;0.10;0.10;;;0.30;99.90;;;;;;5022467;28;20156;-73
2023/12/18 00:13:49;;;;;;;2.65;2.45;;;0.20;99.90;;;;;;5027762;28;20022;-73
2023/12/18 00:16:15;;;;;;;0.10;0.10;;;0.00;99.90;;;;;;5019197;28;20096;-73
2023/12/18 00:18:42;;;;;;;0.17;0.17;;;0.00;99.90;;;;;;5025710;28;20529;-74
2023/12/18 00:21:08;;;;;;;0.20;0.20;;;0.00;99.90;;;;;;5029768;28;20742;-73
2023/12/18 00:23:33;;;;;;;0.10;0.10;;;-0.10;99.90;;;;;;5026960;28;20108;-79
2023/12/18 00:25:59;;;;;;;0.10;0.10;;;-0.20;99.90;;;;;;5028653;28;20017;-73
2023/12/18 00:28:25;;;;;;;0.30;0.30;;;-0.20;99.90;;;;;;5029641;28;20029;-73
2023/12/18 00:30:50;;;;;;;0.17;0.17;;;0.90;99.90;;;;;;5027376;28;20025;-73
2023/12/18 00:33:16;;;;;;;0.10;0.10;;;-0.20;99.90;;;;;;5024943;28;20053;-73
2023/12/18 00:35:42;;;;;;;0.10;0.10;;;-0.20;99.90;;;;;;5024604;28;20164;-74
2023/12/18 00:38:08;;;;;;;0.10;0.10;;;-0.30;99.90;;;;;;5020760;28;20017;-74
2023/12/18 00:40:34;;;;;;;4.45;4.03;;;-0.20;99.90;;;;;;5021506;28;20033;-73
2023/12/18 00:43:00;;;;;;;0.52;0.52;;;-0.10;99.90;;;;;;5019419;28;20021;-78
2023/12/18 00:45:25;;;;;;;0.20;0.20;;;-0.10;99.90;;;;;;5017932;28;20075;-74
2023/12/18 00:47:52;;;;;;;0.10;0.10;;;0.00;99.90;;;;;;5019442;28;20021;-73
2023/12/18 00:50:18;;;;;;;0.10;0.10;;;0.10;99.90;;;;;;5020292;28;20033;-73
2023/12/18 00:52:44;;;;;;;0.20;0.20;;;0.10;99.90;;;;;;5020167;28;20022;-72
2023/12/18 00:55:10;;;;;;;0.13;0.13;;;0.10;99.90;;;;;;5018732;28;20021;-73
2023/12/18 00:57:37;;;;;;;3.13;3.03;;;0.10;99.90;;;;;;5026183;28;20565;-73
2023/12/18 01:00:04;;;;;;;1.58;1.55;;;0.20;99.90;;;;;;5021307;28;20033;-73
2023/12/18 01:02:30;;;;;;;2.85;2.75;;;0.30;99.90;;;;;;5027670;28;20021;-73
2023/12/18 01:04:55;;;;;;;3.13;3.03;;;0.20;99.90;;;;;;5022163;28;20022;-73
2023/12/18 01:07:22;;;;;;;0.13;0.13;;;0.30;99.90;;;;;;5019965;28;20029;-73
2023/12/18 01:09:47;;;;;;;1.20;1.20;;;0.20;99.90;;;;;;5031465;28;20708;-76
2023/12/18 01:12:13;;;;;;;13.45;11.18;;;0.30;99.90;;;;;;5049246;28;20044;-73
2023/12/18 01:14:39;;;;;;;0.10;0.10;;;0.30;99.90;;;;;;5053465;28;20017;-77
2023/12/18 01:17:05;;;;;;;0.20;0.20;;;0.40;99.90;;;;;;5048099;28;20305;-73
2023/12/18 01:19:31;;;;;;;1.90;1.75;;;0.40;99.90;;;;;;5050203;28;20032;-74
2023/12/18 01:21:56;;;;;;;0.70;0.70;;;0.30;99.90;;;;;;5050322;28;20132;-73
2023/12/18 01:24:22;;;;;;;0.25;0.25;;;0.30;99.90;;;;;;5049295;28;20029;-80
2023/12/18 01:26:48;;;;;;;0.10;0.10;;;0.30;99.90;;;;;;5049542;28;20040;-75
2023/12/18 01:29:14;;;;;;;3.10;2.80;;;0.20;99.90;;;;;;5055391;28;20021;-73
2023/12/18 01:31:39;;;;;;;0.15;0.15;;;0.30;99.90;;;;;;5053020;28;20140;-74
2023/12/18 01:34:07;;;;;;;13.43;12.68;;;0.30;99.90;;;;;;5050892;28;20028;-74
2023/12/18 01:36:33;;;;;;;25.85;24.40;;;0.30;99.90;;;;;;5052624;28;20104;-75
2023/12/18 01:38:59;;;;;;;0.95;0.95;;;0.30;99.90;;;;;;5047000;28;20071;-80
2023/12/18 01:41:25;;;;;;;0.80;0.80;;;0.30;99.90;;;;;;5026989;28;20018;-73
2023/12/18 01:43:51;;;;;;;0.20;0.20;;;0.20;99.90;;;;;;5032170;28;20021;-73
2023/12/18 01:46:23;;;;;;;0.50;0.50;;;0.20;99.90;;;;;;5026871;28;20583;-81
2023/12/18 01:48:50;;;;;;;0.20;0.20;;;0.20;99.90;;;;;;5030506;28;20017;-76
2023/12/18 01:51:16;;;;;;;0.77;0.77;;;0.20;99.90;;;;;;5036816;28;20288;-79
2023/12/18 01:53:47;;;;;;;6.88;6.65;;;0.20;99.90;;;;;;5025805;28;20822;-79
2023/12/18 01:56:15;;;;;;;0.90;0.90;;;0.30;99.90;;;;;;5028124;28;20210;-73
2023/12/18 01:58:43;;;;;;;0.57;0.57;;;0.30;99.90;;;;;;5028441;28;20024;-74
2023/12/18 02:01:09;;;;;;;14.10;7.10;;;0.30;99.90;;;;;;5031374;28;20567;-78
2023/12/18 02:03:35;;;;;;;7.25;7.03;;;0.20;99.90;;;;;;5032220;28;20022;-75
2023/12/18 02:06:03;;;;;;;2.72;2.63;;;0.20;99.90;;;;;;5042218;28;20051;-77
2023/12/18 02:08:32;;;;;;;0.20;0.20;;;0.20;99.90;;;;;;5037332;28;20045;-73
2023/12/18 02:10:58;;;;;;;0.20;0.20;;;0.20;99.90;;;;;;5039512;28;20215;-74
2023/12/18 02:13:24;;;;;;;0.77;0.77;;;0.20;99.90;;;;;;5036525;28;20022;-75
2023/12/18 02:15:50;;;;;;;3.53;3.42;;;0.10;99.90;;;;;;5028295;28;20756;-76
2023/12/18 02:18:16;;;;;;;0.15;0.15;;;0.10;99.90;;;;;;5029544;28;20525;-78
2023/12/18 02:20:42;;;;;;;7.35;7.03;;;0.10;99.90;;;;;;5026699;28;20541;-74
2023/12/18 02:23:09;;;;;;;0.20;0.20;;;0.10;99.90;;;;;;5025375;28;20540;-78
2023/12/18 02:25:35;;;;;;;0.20;0.20;;;0.00;99.90;;;;;;5028250;28;20056;-78
2023/12/18 02:28:03;;;;;;;2.17;1.10;;;0.00;99.90;;;;;;5031811;28;20045;-74
2023/12/18 02:30:31;;;;;;;0.20;0.20;;;0.00;99.90;;;;;;5032484;28;20036;-73
2023/12/18 02:32:57;;;;;;;1.13;1.07;;;0.10;99.90;;;;;;5025612;28;20025;-77
2023/12/18 02:35:23;;;;;;;3.57;3.40;;;-0.10;99.90;;;;;;5027329;28;20022;-73
2023/12/18 02:37:49;;;;;;;0.17;0.17;;;-0.30;99.90;;;;;;5023711;28;20028;-80
2023/12/18 02:40:16;;;;;;;1.30;1.30;;;-0.30;99.90;;;;;;5028134;28;20029;-79
2023/12/18 02:42:42;;;;;;;0.20;0.20;;;-0.30;99.90;;;;;;5035236;28;20022;-76
2023/12/18 02:45:09;;;;;;;0.10;0.10;;;-0.20;99.90;;;;;;5027639;28;20101;-76
2023/12/18 02:47:34;;;;;;;0.20;0.20;;;-0.20;99.90;;;;;;5033994;28;20029;-75
2023/12/18 02:50:00;;;;;;;0.17;0.17;;;-0.20;99.90;;;;;;5047045;28;20037;-73
2023/12/18 02:52:26;;;;;;;0.30;0.30;;;-0.20;99.90;;;;;;5026418;28;20021;-76
2023/12/18 02:54:52;;;;;;;0.13;0.13;;;-0.20;99.90;;;;;;5031065;28;20371;-73
2023/12/18 02:57:18;;;;;;;0.10;0.10;;;-0.10;99.90;;;;;;5029703;28;20491;-73
2023/12/18 02:59:44;;;;;;;0.10;0.10;;;-0.10;99.90;;;;;;5031376;28;20110;-81
2023/12/18 03:02:09;;;;;;;0.20;0.20;;;-0.10;99.90;;;;;;5043899;28;20648;-73
2023/12/18 03:04:41;;;;;;;0.47;0.47;;;-0.10;99.90;;;;;;5026902;28;20049;-79
2023/12/18 03:07:08;;;;;;;0.17;0.17;;;-1.90;99.90;;;;;;5023165;28;20040;-73
2023/12/18 03:09:34;;;;;;;0.20;0.20;;;-0.10;99.90;;;;;;5023388;28;20057;-77
2023/12/18 03:12:00;;;;;;;0.15;0.15;;;-0.10;99.90;;;;;;5023172;28;20689;-74
2023/12/18 03:14:26;;;;;;;0.10;0.10;;;-0.10;99.90;;;;;;5023075;28;20472;-72
2023/12/18 03:16:51;;;;;;;0.20;0.20;;;-0.10;99.90;;;;;;5020618;28;20715;-77
2023/12/18 03:19:18;;;;;;;0.10;0.10;;;-0.10;99.90;;;;;;5022794;28;20048;-73
2023/12/18 03:21:48;;;;;;;0.20;0.20;;;-0.10;99.90;;;;;;5022975;28;20229;-73
2023/12/18 03:24:14;;;;;;;0.10;0.10;;;-0.20;99.90;;;;;;5020428;28;20025;-74
2023/12/18 03:26:40;;;;;;;0.10;0.10;;;-0.20;99.90;;;;;;5022973;28;20060;-73
2023/12/18 03:29:07;;;;;;;1.25;1.23;;;-0.20;99.90;;;;;;5026864;28;20102;-75
2023/12/18 03:31:33;;;;;;;2.13;2.08;;;-0.20;99.90;;;;;;5034099;28;20237;-75
2023/12/18 03:34:00;;;;;;;0.10;0.10;;;-0.30;99.90;;;;;;5027530;28;20025;-77
2023/12/18 03:36:25;;;;;;;0.13;0.13;;;-0.30;99.90;;;;;;5025781;28;20021;-75
2023/12/18 03:38:51;;;;;;;0.17;0.17;;;-0.40;99.90;;;;;;5027220;28;20097;-78
2023/12/18 03:41:17;;;;;;;0.20;0.20;;;-0.30;99.90;;;;;;5026872;28;20458;-73
2023/12/18 03:43:43;;;;;;;0.20;0.20;;;-0.40;99.90;;;;;;5043689;28;20073;-73
2023/12/18 03:46:08;;;;;;;0.20;0.20;;;-0.40;99.90;;;;;;5034025;28;20029;-73
2023/12/18 03:48:34;;;;;;;0.20;0.20;;;-0.30;99.90;;;;;;5024384;28;20028;-73
2023/12/18 03:51:00;;;;;;;0.10;0.10;;;-0.50;99.90;;;;;;5024021;28;20013;-73
2023/12/18 03:53:26;;;;;;;0.13;0.13;;;-0.50;99.90;;;;;;5023558;28;20530;-73
2023/12/18 03:55:52;;;;;;;0.20;0.20;;;-0.40;99.90;;;;;;5021753;28;20025;-73
2023/12/18 03:58:18;;;;;;;0.10;0.10;;;-0.40;99.90;;;;;;5030184;28;20222;-75
2023/12/18 04:00:44;;;;;;;0.13;0.13;;;-0.40;99.90;;;;;;5028834;28;20230;-76
2023/12/18 04:03:10;;;;;;;0.75;0.75;;;-0.40;99.90;;;;;;5027908;28;20057;-73
2023/12/18 04:05:35;;;;;;;1.80;1.80;;;-0.40;99.90;;;;;;5032869;28;20041;-75
2023/12/18 04:08:01;;;;;;;2.45;2.40;;;-0.30;99.90;;;;;;5036520;28;20028;-73
2023/12/18 04:10:27;;;;;;;0.10;0.10;;;-0.30;99.90;;;;;;5040637;28;20080;-75
2023/12/18 04:12:54;;;;;;;18.10;16.77;;;-0.30;99.90;;;;;;5053052;28;20040;-73
2023/12/18 04:15:20;;;;;;;3.03;2.92;;;-0.30;99.90;;;;;;5047917;28;20653;-73
2023/12/18 04:17:46;;;;;;;0.20;0.20;;;-0.40;99.90;;;;;;5052002;28;20021;-73
2023/12/18 04:20:11;;;;;;;0.20;0.20;;;-0.40;99.90;;;;;;5050669;28;20051;-74
2023/12/18 04:22:37;;;;;;;0.30;0.30;;;-0.40;99.90;;;;;;5053149;28;20017;-73
2023/12/18 04:25:03;;;;;;;0.20;0.20;;;-0.40;99.90;;;;;;5052492;28;20037;-78
2023/12/18 04:27:29;;;;;;;3.00;2.90;;;-0.40;99.90;;;;;;5050025;28;20575;-73
2023/12/18 04:29:55;;;;;;;2.10;2.10;;;-0.40;99.90;;;;;;5053668;28;20025;-73
2023/12/18 04:32:21;;;;;;;0.20;0.20;;;-0.40;99.90;;;;;;5054072;28;20029;-74
2023/12/18 04:34:46;;;;;;;0.10;0.10;;;-0.30;99.90;;;;;;5053139;28;20112;-73
2023/12/18 04:37:12;;;;;;;17.40;16.65;;;-0.30;99.90;;;;;;5055079;28;20035;-78
2023/12/18 04:39:38;;;;;;;0.20;0.20;;;-0.30;99.90;;;;;;5048327;28;20064;-74
2023/12/18 04:42:04;;;;;;;34.58;9.50;;;-0.30;99.90;;;;;;5034333;28;20017;-79
2023/12/18 04:44:30;;;;;;;0.30;0.30;;;-0.40;99.90;;;;;;5027728;28;20566;-73
2023/12/18 04:46:56;;;;;;;0.40;0.40;;;-0.50;99.90;;;;;;5022911;28;20513;-74
2023/12/18 04:49:22;;;;;;;0.50;0.50;;;-0.40;99.90;;;;;;5028265;28;20076;-73
2023/12/18 04:51:48;;;;;;;0.20;0.20;;;-0.40;99.90;;;;;;5026930;28;20037;-79
2023/12/18 04:54:14;;;;;;;0.20;0.20;;;-0.30;99.90;;;;;;5031343;28;20105;-74
2023/12/18 04:56:40;;;;;;;3.60;3.50;;;-0.40;99.90;;;;;;5027279;28;20021;-78
2023/12/18 04:59:06;;;;;;;0.70;0.70;;;-0.40;99.90;;;;;;5034811;28;20031;-73
2023/12/18 05:01:32;;;;;;;0.30;0.30;;;-0.40;99.90;;;;;;5034472;28;20097;-78
2023/12/18 05:03:58;;;;;;;0.27;0.27;;;-0.40;99.90;;;;;;5029594;28;20646;-72
2023/12/18 05:06:26;;;;;;;0.30;0.30;;;-0.40;99.90;;;;;;5028804;28;20021;-73
2023/12/18 05:08:53;;;;;;;0.20;0.20;;;-0.40;99.90;;;;;;5033536;28;20659;-73
2023/12/18 05:11:22;;;;;;;0.23;0.23;;;-0.40;99.90;;;;;;5008079;28;20045;-72
2023/12/18 05:13:48;;;;;;;3.27;3.17;;;-0.50;99.90;;;;;;5010935;28;20281;-73
2023/12/18 05:16:20;;;;;;;1.30;1.30;;;0.90;99.90;;;;;;5013319;28;20117;-74
2023/12/18 05:18:46;;;;;;;0.60;0.60;;;-0.50;99.90;;;;;;5008693;28;20075;-74
2023/12/18 05:21:12;;;;;;;0.30;0.30;;;-0.50;99.90;;;;;;5008879;28;20101;-74
2023/12/18 05:23:38;;;;;;;0.20;0.20;;;-0.50;99.90;;;;;;5003924;28;20096;-74
2023/12/18 05:26:04;;;;;;;0.40;0.40;;;-0.50;99.90;;;;;;5003613;28;20030;-74
2023/12/18 05:28:30;;;;;;;0.30;0.30;;;-0.60;99.90;;;;;;5008061;28;20707;-74
2023/12/18 05:30:56;;;;;;;1.13;1.10;;;-0.50;99.90;;;;;;5022083;28;20033;-78
2023/12/18 05:33:21;;;;;;;0.20;0.20;;;-0.60;99.90;;;;;;5022161;28;20563;-72
2023/12/18 05:35:47;;;;;;;2.43;2.33;;;-0.60;99.90;;;;;;5021249;28;20056;-74
2023/12/18 05:38:13;;;;;;;0.20;0.20;;;-0.70;99.90;;;;;;5020630;28;20022;-74
2023/12/18 05:40:39;;;;;;;0.10;0.10;;;-0.70;99.90;;;;;;5016867;28;20022;-74
2023/12/18 05:43:05;;;;;;;0.10;0.10;;;-0.60;99.90;;;;;;5000237;28;20030;-74
2023/12/18 05:45:32;;;;;;;0.30;0.30;;;-0.70;99.90;;;;;;5001419;28;20018;-74
2023/12/18 05:47:59;;;;;;;0.20;0.20;;;-0.80;99.90;;;;;;5003038;28;20080;-74
2023/12/18 05:50:25;;;;;;;0.20;0.20;;;-0.60;99.90;;;;;;5003486;28;20058;-74
2023/12/18 05:52:51;;;;;;;0.10;0.10;;;-0.60;99.90;;;;;;5004299;28;20119;-78
2023/12/18 05:55:17;;;;;;;0.13;0.13;;;-0.60;99.90;;;;;;5002375;28;20052;-74
2023/12/18 05:57:42;;;;;;;0.10;0.10;;;-0.60;99.90;;;;;;5002770;28;20030;-74
2023/12/18 06:00:09;;;;;;;0.20;0.20;;;-0.60;99.90;;;;;;5002136;28;20026;-73
2023/12/18 06:02:35;;;;;;;0.20;0.20;;;-0.60;99.90;;;;;;5001232;28;20030;-74
2023/12/18 06:05:01;;;;;;;0.20;0.20;;;0.80;99.90;;;;;;5002233;28;20507;-77
2023/12/18 06:07:27;;;;;;;0.20;0.20;;;-0.50;99.90;;;;;;5001600;28;20508;-74
2023/12/18 06:09:53;;;;;;;0.20;0.20;;;-0.50;99.90;;;;;;5013401;28;20069;-74
2023/12/18 06:12:19;;;;;;;7.97;7.63;;;-0.60;99.90;;;;;;5020496;28;20048;-73
2023/12/18 06:14:44;;;;;;;0.13;0.13;;;-0.60;99.90;;;;;;5020191;28;20623;-76
2023/12/18 06:17:10;;;;;;;0.10;0.10;;;-0.60;99.90;;;;;;5020989;28;20595;-73
2023/12/18 06:19:37;;;;;;;2.57;2.47;;;-0.60;99.90;;;;;;5021246;28;20056;-72
2023/12/18 06:22:03;;;;;;;2.73;2.63;;;-0.60;99.90;;;;;;5021866;28;20064;-73
2023/12/18 06:24:29;;;;;;;0.50;0.50;;;-0.60;99.90;;;;;;5019572;28;20072;-73
2023/12/18 06:26:55;;;;;;;0.20;0.20;;;-0.70;99.90;;;;;;5020263;28;20026;-76
2023/12/18 06:29:22;;;;;;;0.20;0.20;;;-0.60;99.90;;;;;;5024559;28;20025;-74
2023/12/18 06:31:48;;;;;;;0.20;0.20;;;-0.50;99.90;;;;;;5030725;28;20732;-78
2023/12/18 06:34:14;;;;;;;0.20;0.20;;;-0.50;99.90;;;;;;5031243;28;20029;-74
2023/12/18 06:36:40;;;;;;;12.83;12.00;;;-0.60;99.90;;;;;;5030518;28;20652;-74
2023/12/18 06:39:05;;;;;;;0.20;0.20;;;-0.60;99.90;;;;;;5027599;28;20033;-75
2023/12/18 06:41:31;;;;;;;0.10;0.10;;;-0.50;99.90;;;;;;5025402;28;20582;-73
2023/12/18 06:43:57;;;;;;;0.10;0.10;;;-0.50;99.90;;;;;;5034091;28;20033;-74
2023/12/18 06:46:23;;;;;;;0.17;0.17;;;-0.50;99.90;;;;;;5030070;28;20387;-74
2023/12/18 06:48:49;;;;;;;0.10;0.10;;;-0.40;99.90;;;;;;5029622;28;20022;-76
2023/12/18 06:51:16;;;;;;;0.20;0.20;;;-0.40;99.90;;;;;;5025797;28;20030;-73
2023/12/18 06:53:41;;;;;;;0.10;0.10;;;-0.40;99.90;;;;;;5021210;28;20017;-75
2023/12/18 06:56:08;;;;;;;2.83;2.73;;;-0.50;99.90;;;;;;5022385;28;20063;-75
2023/12/18 06:58:34;;;;;;;12.30;11.17;;;-0.50;99.90;;;;;;5022278;28;20014;-74
2023/12/18 07:01:00;;;;;;;0.10;0.10;;;-0.40;99.90;;;;;;5024036;28;20052;-75
2023/12/18 07:03:26;;;;;;;10.00;9.47;;;-0.40;99.90;;;;;;5027920;28;20022;-76
2023/12/18 07:05:52;;;;;;;16.17;12.13;;;-0.40;99.90;;;;;;5030936;28;20156;-76
2023/12/18 07:08:18;;;;;;;0.20;0.20;;;-0.40;99.90;;;;;;5032890;28;20053;-78
2023/12/18 07:10:45;;;;;;;0.20;0.20;;;-0.30;99.90;;;;;;5028215;28;20065;-80
2023/12/18 07:13:11;;;;;;;0.10;0.10;;;-0.30;99.90;;;;;;5029040;28;20026;-75
2023/12/18 07:15:36;;;;;;;0.10;0.10;;;-0.30;99.90;;;;;;5026145;28;20053;-74
2023/12/18 07:18:03;;;;;;;0.20;0.20;;;-0.30;99.90;;;;;;5028776;28;20051;-76
2023/12/18 07:20:29;;;;;;;0.20;0.20;;;-0.30;99.90;;;;;;5030997;28;20479;-77
2023/12/18 07:22:54;;;;;;;0.20;0.20;;;-0.20;99.90;;;;;;5033572;28;20060;-76
2023/12/18 07:25:20;;;;;;;0.90;0.90;;;-0.20;99.90;;;;;;5032461;28;20014;-75
2023/12/18 07:27:46;;;;;;;0.20;0.20;;;-0.20;99.90;;;;;;5033601;28;20036;-79
2023/12/18 07:30:12;;;;;;;0.20;0.20;;;-0.20;99.90;;;;;;5038117;28;20029;-75
2023/12/18 07:32:40;;;;;;;0.10;0.10;;;-0.20;99.90;;;;;;5030866;28;20069;-76
2023/12/18 07:35:06;;;;;;;0.20;0.20;;;-0.20;99.90;;;;;;5032123;28;20278;-73
2023/12/18 07:37:32;;;;;;;0.83;0.83;;;-0.10;99.90;;;;;;5021670;28;20035;-79
2023/12/18 07:39:59;;;;;;;0.20;0.20;;;-0.10;99.90;;;;;;5024148;28;20560;-81
2023/12/18 07:42:26;;;;;;;0.20;0.20;;;-0.10;99.90;;;;;;5026667;28;20659;-75
2023/12/18 07:44:52;;;;;;;0.10;0.10;;;0.00;99.90;;;;;;5029453;28;20025;-78
2023/12/18 07:47:18;;;;;;;0.20;0.20;;;0.10;99.90;;;;;;5029834;28;20025;-76
2023/12/18 07:49:45;;;;;;;0.20;0.20;;;0.10;99.90;;;;;;5026201;28;20135;-77
2023/12/18 07:52:11;;;;;;;18.27;17.15;;;0.20;99.90;;;;;;5028056;28;20026;-76
2023/12/18 07:54:37;;;;;;;0.10;0.10;;;0.30;99.90;;;;;;5037788;28;20484;-79
2023/12/18 07:57:03;;;;;;;5.20;5.00;;;0.40;99.90;;;;;;5037834;28;20116;-74
2023/12/18 07:59:29;;;;;;;0.10;0.10;;;2.30;99.90;;;;;;5037590;28;20021;-76
2023/12/18 08:01:55;;;;;;;0.65;0.65;;;0.60;99.90;;;;;;5036502;28;20013;-76
2023/12/18 08:04:21;;;;;;;0.10;0.10;;;0.70;99.90;;;;;;5026742;28;20068;-73
2023/12/18 08:06:53;;;;;;;0.47;0.47;;;0.70;99.90;;;;;;5019581;28;20021;-75
2023/12/18 08:09:19;;;;;;;0.15;0.15;;;0.70;99.90;;;;;;5019759;28;20799;-74
2023/12/18 08:11:45;;;;;;;5.82;5.55;;;0.70;99.90;;;;;;5022112;28;20064;-71
2023/12/18 08:14:11;;;;;;;0.25;0.25;;;0.90;99.90;;;;;;5020071;28;20051;-74
2023/12/18 08:16:37;;;;;;;0.15;0.15;;;0.90;99.90;;;;;;5025928;28;20033;-74
2023/12/18 08:19:03;;;;;;;3.10;3.00;;;0.90;99.90;;;;;;5045682;28;20112;-75
2023/12/18 08:21:28;;;;;;;0.47;0.47;;;0.80;99.90;;;;;;5022828;28;20063;-74
2023/12/18 08:23:54;;;;;;;18.20;17.23;;;0.90;99.90;;;;;;5025494;28;20079;-74
2023/12/18 08:26:20;;;;;;;0.20;0.20;;;0.90;99.90;;;;;;5024028;28;20492;-74
2023/12/18 08:28:46;;;;;;;0.65;0.65;;;1.00;99.90;;;;;;5031895;28;20064;-74
2023/12/18 08:31:12;;;;;;;9.25;8.65;;;1.20;99.90;;;;;;5025314;28;20703;-74
2023/12/18 08:33:40;;;;;;;0.55;0.55;;;1.30;99.90;;;;;;5025748;28;20124;-73
2023/12/18 08:36:06;;;;;;;0.25;0.25;;;1.30;99.90;;;;;;5026415;28;20018;-75
2023/12/18 08:38:39;;;;;;;0.30;0.30;;;1.50;99.90;;;;;;5028351;28;20319;-73
2023/12/18 08:41:05;;;;;;;3.60;3.42;;;1.50;99.90;;;;;;5026025;28;20033;-74
2023/12/18 08:43:31;;;;;;;29.33;23.45;;;1.60;99.90;;;;;;5034435;28;20090;-74
2023/12/18 08:45:57;;;;;;;0.90;0.90;;;1.60;99.90;;;;;;5032999;28;20084;-74
2023/12/18 08:48:23;;;;;;;7.43;7.13;;;1.70;99.90;;;;;;5031987;28;20026;-74
2023/12/18 08:50:49;;;;;;;12.60;11.25;;;1.90;99.90;;;;;;5035017;28;20098;-74
2023/12/18 08:53:15;;;;;;;1.17;1.17;;;3.80;99.90;;;;;;5026338;28;20079;-73
2023/12/18 08:55:42;;;;;;;3.95;3.80;;;2.00;99.90;;;;;;5028084;28;20017;-75
2023/12/18 08:58:09;;;;;;;4.20;4.03;;;1.80;99.90;;;;;;5028811;28;20017;-77
2023/12/18 09:00:36;;;;;;;16.48;15.63;;;1.90;99.90;;;;;;5031916;28;20056;-78
2023/12/18 09:03:02;;;;;;;1.77;1.70;;;2.10;99.90;;;;;;5035506;28;20029;-73
2023/12/18 09:05:29;;;;;;;18.27;17.08;;;2.20;99.90;;;;;;5025766;28;20063;-78
2023/12/18 09:07:55;;;;;;;1.92;1.83;;;2.30;99.90;;;;;;5025434;28;20041;-77
2023/12/18 09:10:24;;;;;;;10.55;9.93;;;2.40;99.90;;;;;;5030421;28;20041;-77
2023/12/18 09:12:53;;;;;;;8.63;8.13;;;2.40;99.90;;;;;;5024585;28;20274;-73
2023/12/18 09:15:19;;;;;;;8.55;8.07;;;2.50;99.90;;;;;;5030918;28;20033;-77
2023/12/18 09:17:45;;;;;;;17.63;16.08;;;2.70;99.90;;;;;;5032344;28;20021;-74
2023/12/18 09:20:11;;;;;;;9.15;8.52;;;2.90;99.90;;;;;;5032107;28;20221;-73
2023/12/18 09:22:37;;;;;;;11.57;10.77;;;2.90;99.90;;;;;;5034860;28;20030;-80
2023/12/18 09:25:04;;;;;;;4.00;3.88;;;3.10;99.90;;;;;;5033355;28;20091;-77
2023/12/18 09:27:30;;;;;;;0.20;0.20;;;3.20;99.90;;;;;;5028915;28;20028;-80
2023/12/18 09:29:56;;;;;;;11.40;10.15;;;3.20;99.90;;;;;;5027800;28;20571;-77
2023/12/18 09:32:21;;;;;;;1.25;1.02;;;3.20;99.90;;;;;;5027314;28;20037;-80
2023/12/18 09:34:47;;;;;;;0.10;0.10;;;3.30;99.90;;;;;;5025856;28;20284;-74
2023/12/18 09:37:13;;;;;;;0.30;0.30;;;3.50;99.90;;;;;;5024707;28;20503;-79
2023/12/18 09:39:43;;;;;;;0.10;0.10;;;3.60;99.90;;;;;;5037802;28;20033;-73
2023/12/18 09:42:12;;;;;;;0.10;0.10;;;3.50;99.90;;;;;;5025445;28;20087;-74
2023/12/18 09:44:38;;;;;;;0.10;0.10;;;3.70;99.90;;;;;;5029884;28;20025;-74
2023/12/18 09:47:04;;;;;;;1.75;1.65;;;3.80;99.90;;;;;;5031129;28;20056;-73
2023/12/18 09:49:31;;;;;;;11.05;10.32;;;3.80;99.90;;;;;;5030113;28;20025;-75
2023/12/18 09:52:01;;;;;;;3.63;1.95;;;3.90;99.90;;;;;;5032296;28;20030;-81
2023/12/18 09:54:27;;;;;;;2.08;1.98;;;4.10;99.90;;;;;;5029040;28;20018;-76
2023/12/18 09:56:55;;;;;;;0.38;0.38;;;4.30;99.90;;;;;;5030168;28;20029;-78
2023/12/18 09:59:22;;;;;;;1.75;1.75;;;4.40;99.90;;;;;;5030029;28;20071;-78
2023/12/18 10:01:48;;;;;;;0.10;0.10;;;4.50;99.90;;;;;;5025171;28;20312;-73
2023/12/18 10:04:14;;;;;;;0.10;0.10;;;4.60;99.90;;;;;;5027397;28;20087;-75
2023/12/18 10:06:42;;;;;;;3.22;3.13;;;4.80;99.90;;;;;;5028057;28;20034;-77
2023/12/18 10:09:13;;;;;;;0.77;0.77;;;4.60;99.90;;;;;;5027559;28;20014;-74
2023/12/18 10:11:44;;;;;;;0.10;0.10;;;4.60;99.90;;;;;;5027306;28;20033;-79
2023/12/18 10:14:13;;;;;;;0.15;0.15;;;4.60;99.90;;;;;;5046109;28;20021;-77
2023/12/18 10:16:39;;;;;;;80.28;46.65;;;4.90;99.90;;;;;;5046947;28;20804;-77
2023/12/18 10:19:06;;;;;;;14.10;13.35;;;5.00;99.90;;;;;;5046241;28;20024;-79
2023/12/18 10:21:32;;;;;;;0.25;0.25;;;5.20;99.90;;;;;;5047204;28;20024;-74
2023/12/18 10:23:58;;;;;;;1.48;1.48;;;5.10;99.90;;;;;;5049047;28;20025;-79
2023/12/18 10:26:24;;;;;;;0.10;0.10;;;5.20;99.90;;;;;;5045245;28;20025;-77
2023/12/18 10:28:51;;;;;;;0.85;0.85;;;5.20;99.90;;;;;;5055882;28;20045;-73
2023/12/18 10:31:20;;;;;;;0.20;0.20;;;5.20;99.90;;;;;;5062191;28;20033;-76
2023/12/18 10:33:46;;;;;;;2.63;1.30;;;5.30;99.90;;;;;;5053517;28;20021;-78
2023/12/18 10:36:16;;;;;;;0.30;0.30;;;5.40;99.90;;;;;;5051635;28;20104;-79
2023/12/18 10:38:47;;;;;;;0.20;0.20;;;6.00;99.90;;;;;;5053680;28;20024;-78
2023/12/18 10:41:14;;;;;;;0.10;0.10;;;5.50;99.90;;;;;;5053207;28;20074;-75
2023/12/18 10:43:41;;;;;;;0.63;0.60;;;5.60;99.90;;;;;;5036107;28;20022;-76
2023/12/18 10:46:09;;;;;;;1.90;1.88;;;5.80;99.90;;;;;;5036750;28;20029;-79
2023/12/18 10:48:37;;;;;;;1.42;1.35;;;5.80;99.90;;;;;;5034343;28;20023;-80
2023/12/18 10:51:06;;;;;;;2.50;2.40;;;6.00;99.90;;;;;;5032797;28;20025;-74
2023/12/18 10:53:35;;;;;;;0.60;0.60;;;6.10;99.90;;;;;;5032146;28;20049;-78
2023/12/18 10:56:03;;;;;;;2.20;2.10;;;6.20;99.90;;;;;;5028039;28;20667;-76
2023/12/18 10:58:30;;;;;;;0.20;0.20;;;6.40;99.90;;;;;;5026451;28;20018;-77
2023/12/18 11:00:57;;;;;;;0.17;0.17;;;6.40;99.90;;;;;;5027791;28;20108;-78
2023/12/18 11:03:28;;;;;;;0.30;0.30;;;6.60;99.90;;;;;;5028858;28;20024;-74
2023/12/18 11:05:56;;;;;;;37.97;34.97;;;6.80;99.90;;;;;;5024559;28;20645;-79
2023/12/18 11:08:24;;;;;;;0.30;0.30;;;6.80;99.90;;;;;;5024428;28;20029;-79
2023/12/18 11:10:52;;;;;;;0.95;0.95;;;6.80;99.90;;;;;;5023314;28;20110;-75
2023/12/18 11:13:27;;;;;;;5.13;4.85;;;6.90;99.90;;;;;;5033838;28;20475;-79
2023/12/18 11:16:02;;;;;;;1.08;1.08;;;6.90;99.90;;;;;;5043364;28;20053;-74
2023/12/18 11:18:31;;;;;;;0.30;0.30;;;6.90;99.90;;;;;;5042442;28;20679;-79
2023/12/18 11:20:57;;;;;;;0.20;0.20;;;6.90;99.90;;;;;;5043117;28;20132;-80
2023/12/18 11:23:29;;;;;;;0.38;0.38;;;7.00;99.90;;;;;;5041698;28;20117;-79
2023/12/18 11:25:55;;;;;;;1.92;1.85;;;7.10;99.90;;;;;;5040554;28;20017;-77
2023/12/18 11:28:24;;;;;;;0.35;0.35;;;7.30;99.90;;;;;;5043778;28;20025;-77
2023/12/18 11:30:59;;;;;;;2.38;2.30;;;7.40;99.90;;;;;;5045003;28;20032;-75
2023/12/18 11:33:25;;;;;;;7.50;7.07;;;7.50;99.90;;;;;;5044151;28;20029;-76
2023/12/18 11:35:51;;;;;;;2.70;2.60;;;7.80;99.90;;;;;;5045746;28;20110;-78
2023/12/18 11:38:20;;;;;;;2.55;2.45;;;7.80;99.90;;;;;;5044642;28;20025;-73
2023/12/18 11:40:50;;;;;;;0.20;0.20;;;7.90;99.90;;;;;;5041767;28;20029;-75
2023/12/18 11:43:35;;;;;;;1.00;1.00;;;7.90;99.90;;;;;;5042915;28;20035;-75
2023/12/18 11:46:09;;;;;;;1.17;1.17;;;8.00;99.90;;;;;;5049100;28;20024;-73
2023/12/18 11:48:35;;;;;;;0.38;0.38;;;8.00;99.90;;;;;;5050564;28;20021;-74
2023/12/18 11:51:04;;;;;;;10.55;9.85;;;8.30;99.90;;;;;;5055528;28;20065;-74
2023/12/18 11:53:33;;;;;;;3.00;2.83;;;8.40;99.90;;;;;;5056808;28;20096;-74
2023/12/18 11:56:05;;;;;;;0.50;0.50;;;8.40;99.90;;;;;;5043034;28;20741;-77
2023/12/18 11:58:34;;;;;;;0.40;0.40;;;8.40;99.90;;;;;;5041124;28;20615;-76
2023/12/18 12:00:59;;;;;;;6.30;6.07;;;8.50;99.90;;;;;;5040779;28;20017;-74
2023/12/18 12:03:26;;;;;;;0.73;0.73;;;9.20;99.90;;;;;;5045133;28;20028;-79
2023/12/18 12:05:52;;;;;;;6.30;6.00;;;8.80;99.90;;;;;;5043991;28;20074;-78
2023/12/18 12:08:18;;;;;;;0.38;0.38;;;8.70;99.90;;;;;;5044933;28;20028;-78
2023/12/18 12:10:46;;;;;;;1.40;1.40;;;8.80;99.90;;;;;;5043257;28;20041;-80
2023/12/18 12:13:20;;;;;;;1.50;1.50;;;9.00;99.90;;;;;;5036173;28;20068;-76
2023/12/18 12:15:57;;;;;;;16.85;16.00;;;9.00;99.90;;;;;;5021999;28;20040;-77
2023/12/18 12:18:31;;;;;;;0.50;0.50;;;9.20;99.90;;;;;;5021932;28;20025;-76
2023/12/18 12:20:58;;;;;;;0.30;0.30;;;9.20;99.90;;;;;;5022053;28;20017;-74
2023/12/18 12:23:25;;;;;;;8.48;8.02;;;9.40;99.90;;;;;;5023802;28;20021;-75
2023/12/18 12:25:55;;;;;;;10.45;9.90;;;9.40;99.90;;;;;;5023422;28;20068;-75
2023/12/18 12:28:21;;;;;;;6.57;6.30;;;9.40;99.90;;;;;;5033019;28;20048;-74
2023/12/18 12:30:47;;;;;;;3.67;3.55;;;9.50;99.90;;;;;;5039735;28;20037;-73
2023/12/18 12:33:13;;;;;;;6.68;4.78;;;9.60;99.90;;;;;;5039652;28;20087;-80
2023/12/18 12:35:41;;;;;;;10.98;10.23;;;9.60;99.90;;;;;;5027383;28;20535;-77
2023/12/18 12:38:07;;;;;;;1.08;1.08;;;9.70;99.90;;;;;;5029929;28;20026;-76
2023/12/18 12:40:40;;;;;;;1.30;1.25;;;9.80;99.90;;;;;;5035624;28;20017;-75
2023/12/18 12:43:07;;;;;;;0.45;0.45;;;9.70;99.90;;;;;;5036476;28;20030;-77
2023/12/18 12:45:34;;;;;;;1.25;1.23;;;9.60;99.90;;;;;;5035640;28;20033;-76
2023/12/18 12:48:00;;;;;;;3.78;3.58;;;9.60;99.90;;;;;;5039787;28;20057;-74